Flight Track Log - Related Links

Times and Time Zones

All times are in EDT time to prevent confusion due to time zone crossing. See the UAL3740 flight status page for this flight to view local times or setup timezone preferences in your user account.

Time Position Orientation Groundspeed Altitude Reporting Facility
EDT Latitude Longitude Course Direction KTS MPH feet Rate Location/Type
Wed 08:28:43 AM 38.9833 -77.5333 67° East 212 244 2,400  Level Potomac TRACON
Wed 08:29:37 AM 39.0333 -77.5167 15° North 270 311 4,600 2,294 Climbing Potomac TRACON
Wed 08:32:07 AM 39.1575 -77.3128 52° Northeast 298 343 10,200 2,000 Climbing Washington Center
Wed 08:33:07 AM 39.1197 -77.1861 111° Southeast 311 358 11,600 1,450 Climbing Washington Center
Wed 08:34:00 AM 39.0794 -76.6450 67° East  Level FlightAware Approximate
Wed 08:34:07 AM 39.0897 -77.0731 109° East 356 410 13,100  Level Washington Center
Wed 08:35:07 AM 39.0981 -76.8942 87° East 406 467 15,100 1,750 Climbing Washington Center
Wed 08:36:07 AM 39.1100 -76.7364 84° East 412 474 16,600 1,450 Climbing Washington Center
Wed 08:37:07 AM 39.1219 -76.5761 84° East 430 495 18,000 1,450 Climbing Washington Center
Wed 08:38:07 AM 39.1336 -76.4131 85° East 443 510 19,500 1,550 Climbing Washington Center
Wed 08:39:07 AM 39.1472 -76.2472 84° East 450 518 21,100 1,450 Climbing Washington Center
Wed 08:40:07 AM 39.1686 -76.1056 79° East 455 524 22,400 950 Climbing Washington Center
Wed 08:41:07 AM 39.1839 -75.9397 83° East 461 531 23,000 250 Climbing Washington Center
Wed 08:42:07 AM 39.2550 -75.8033 56° Northeast 453 521 22,900 200 Descending Washington Center
Wed 08:43:07 AM 39.3489 -75.6828 45° Northeast 454 522 23,400 1,050 Climbing Washington Center
Wed 08:44:07 AM 39.4406 -75.5647 45° Northeast 454 522 25,000 1,550 Climbing Washington Center
Wed 08:45:07 AM 39.5281 -75.4489 46° Northeast 454 522 26,500 1,500 Climbing Washington Center
Wed 08:46:07 AM 39.6175 -75.3303 46° Northeast 454 522 28,000 1,348 Climbing Washington Center
Wed 08:48:05 AM 39.7842 -75.0903 48° Northeast 451 519 30,500 1,213 Climbing New York Center
Wed 08:49:05 AM 39.8678 -74.9711 48° Northeast 451 519 31,600 1,068 Climbing New York Center
Wed 08:50:03 AM 39.9447 -74.8619 47° Northeast 451 519 32,600 712 Climbing New York Center
Wed 08:51:03 AM 40.0278 -74.7475 47° Northeast 446 513 33,000 198 Climbing New York Center
Wed 08:52:04 AM 40.1239 -74.6119 47° Northeast 456 525 33,000 -148 Level New York Center
Wed 08:53:05 AM 40.1889 -74.4744 58° Northeast 469 540 32,700 -1,067 Descending New York Center
Wed 08:55:04 AM 40.3056 -74.1408 65° Northeast 505 581 29,800 -1,475 Descending Boston Center
Wed 08:56:04 AM 40.3622 -73.9842 65° Northeast 505 581 28,300 -1,400 Descending Boston Center
Wed 08:57:04 AM 40.4161 -73.8303 65° Northeast 476 548 27,000 -650 Descending Boston Center
Wed 08:58:04 AM 40.4681 -73.6758 66° East 463 533 27,000  Level Boston Center
Wed 08:59:04 AM 40.5197 -73.5075 68° East 473 544 27,000 -250 Level Boston Center
Wed 09:00:04 AM 40.5753 -73.3472 65° Northeast 478 550 26,500 -1,050 Descending Boston Center
Wed 09:01:04 AM 40.6264 -73.1975 66° East 461 531 24,900 -1,900 Descending Boston Center
Wed 09:02:04 AM 40.6794 -73.0422 66° East 456 525 22,700 -2,200 Descending Boston Center
Wed 09:03:04 AM 40.7281 -72.8892 67° East 456 525 20,500 -2,200 Descending Boston Center
Wed 09:04:04 AM 40.7828 -72.7389 64° Northeast 456 525 18,300 -1,950 Descending Boston Center
Wed 09:05:04 AM 40.8331 -72.5664 69° East 456 525 16,600 -1,600 Descending Boston Center
Wed 09:06:04 AM 40.8833 -72.4208 65° Northeast 450 518 15,100 -1,500 Descending Boston Center
Wed 09:07:04 AM 40.9269 -72.2892 66° East 420 483 13,600 -1,558 Descending Boston Center
Wed 09:07:21 AM 40.9331 -72.2781 54° Northeast 411 473 13,100 -1,532 Descending Boston Center
Wed 09:07:51 AM 40.9581 -72.2036 66° East 399 459 12,400 -1,412 Descending Boston Center
Wed 09:08:46 AM 40.9953 -72.0992 65° Northeast 393 452 11,100 -1,151 Descending Boston Center
Wed 09:09:04 AM 41.0139 -72.0303 70° East 390 449 11,000 -100 Descending Boston Center
Wed 09:09:46 AM 41.0386 -71.9669 63° Northeast 394 453 11,000 -100 Level Boston Center
Wed 09:10:04 AM 41.0611 -71.9006 66° East 390 449 10,900 -787 Descending Boston Center
Wed 09:10:47 AM 41.1047 -71.8450 44° Northeast 363 418 10,200 -900 Descending Boston Center
Wed 09:11:04 AM 41.1189 -71.8064 64° Northeast 358 412 10,000 -1,200 Descending Boston Center
Wed 09:11:47 AM 41.1583 -71.7536 45° Northeast 301 346 9,000 -1,500 Descending Boston Center
Wed 09:12:04 AM 41.1686 -71.7258 64° Northeast 311 358 8,500 -1,967 Descending Boston Center
Wed 09:12:48 AM 41.2078 -71.6731 45° Northeast 286 329 7,000 -1,800 Descending Boston Center
Wed 09:13:04 AM 41.2200 -71.6481 57° Northeast 283 326 6,700 -1,574 Descending Boston Center
Wed 09:13:49 AM 41.2572 -71.5925 48° Northeast 281 323 5,400 -1,600 Descending Boston Center
Wed 09:14:04 AM 41.2675 -71.5703 58° Northeast 273 314 5,100 -320 Descending Boston Center
Wed 09:15:04 AM 41.3169 -71.5086 43° Northeast 261 300 5,000 -57 Descending Boston Center
Wed 09:15:50 AM 41.3497 -71.4475 54° Northeast 260 299 5,000  Level Boston Center
Wed 09:16:16 AM 41.3603 -71.4361 39° Northeast 261 300 5,000 -1,000 Level Boston Center
Wed 09:16:50 AM 41.4014 -71.3858 43° Northeast 250 288 4,000 -1,500 Descending Boston Center
Wed 09:17:16 AM 41.4283 -71.3686 26° Northeast 254 292 3,500 -1,180 Descending Boston Center
Wed 09:17:51 AM 41.4592 -71.3378 37° Northeast 247 284 2,800 -1,000 Descending Boston Center
Wed 09:18:16 AM 41.4842 -71.3233 23° Northeast 243 280 2,500 -787 Descending Boston Center
Wed 09:18:52 AM 41.5108 -71.2953 38° Northeast 222 255 2,000 -500 Descending Boston Center
Wed 09:19:16 AM 41.5339 -71.2864 16° North 222 255 2,000  Level Boston Center
Wed 09:19:52 AM 41.5608 -71.2803 10° North 199 229 2,000  Level Boston Center
Wed 09:20:16 AM 41.5839 -71.2856 350° North 198 228 2,000  Level Boston Center
Wed 09:20:59 AM 41.6175 -71.3128 329° Northwest 196 226 2,000  Level Boston Center
Wed 09:21:16 AM 41.6281 -71.3236 323° Northwest 175 201 2,000 -197 Level Boston Center
Wed 09:22:00 AM 41.6492 -71.3511 316° Northwest 177 204 1,800 -300 Descending Boston Center
Wed 09:22:16 AM 41.6617 -71.3619 327° Northwest 170 196 1,700 -667 Descending Boston Center
Wed 09:22:54 AM 41.6742 -71.3756 321° Northwest 163 188 1,200 -364 Descending Boston Center
Wed 09:23:55 AM 41.6911 -71.3947 320° Northwest 158 182 1,100 -98 Descending Boston Center

Login

Don't have an account? Register now (free) for customized features, flight alerts, and more!